Time;durP1;ratioP1;P1;durP2;ratioP2;P2;SDS_P1;SDS_P2;PMS_P1;PMS_P2;Temp;Humidity;BMP_temperature;BMP_pressure;BME280_temperature;BME280_humidity;BME280_pressure;Samples;Min_cycle;Max_cycle;Signal;HPM_P1;HPM_P2
2023/05/27 00:01:43;;;;;;;;;;;;;;;26.47;38.34;100541.31;5063122;28;1022;-38
2023/05/27 00:04:08;;;;;;;;;;;;;;;26.42;39.00;100546.44;5062757;28;1163;-39
2023/05/27 00:06:33;;;;;;;;;;;;;;;26.62;38.50;100551.28;5076813;28;1129;-43
2023/05/27 00:08:59;;;;;;;;;;;;;;;26.52;38.61;100554.25;5063495;28;1248;-39
2023/05/27 00:11:25;;;;;;;;;;;;;;;26.48;38.98;100551.06;5068666;28;987;-43
2023/05/27 00:13:50;;;;;;;;;;;;;;;26.47;38.68;100549.41;5062506;28;1917;-40
2023/05/27 00:16:16;;;;;;;;;;;;;;;26.56;38.58;100552.03;5064284;28;1078;-44
2023/05/27 00:18:42;;;;;;;;;;;;;;;26.56;38.53;100543.94;5062238;28;1206;-40
2023/05/27 00:21:07;;;;;;;;;;;;;;;26.43;38.64;100541.84;5064120;28;1118;-41
2023/05/27 00:23:33;;;;;;;;;;;;;;;26.52;38.80;100543.47;5074709;28;1052;-43
2023/05/27 00:25:58;;;;;;;;;;;;;;;26.55;38.54;100542.25;5076585;28;1047;-42
2023/05/27 00:28:24;;;;;;;;;;;;;;;26.57;38.58;100534.81;5076281;28;1161;-39
2023/05/27 00:30:49;;;;;;;;;;;;;;;26.43;38.67;100531.91;5076354;28;1154;-39
2023/05/27 00:33:16;;;;;;;;;;;;;;;26.52;38.30;100533.53;5052832;28;1913;-42
2023/05/27 00:35:41;;;;;;;;;;;;;;;26.62;38.47;100538.66;5067832;28;1103;-40
2023/05/27 00:38:06;;;;;;;;;;;;;;;26.39;38.68;100536.81;5044594;28;1141;-44
2023/05/27 00:40:32;;;;;;;;;;;;;;;26.58;38.40;100534.63;5046492;28;1012;-39
2023/05/27 00:42:58;;;;;;;;;;;;;;;26.53;38.36;100537.88;5055843;28;1071;-41
2023/05/27 00:45:23;;;;;;;;;;;;;;;26.52;38.11;100529.97;5076025;28;1174;-39
2023/05/27 00:47:49;;;;;;;;;;;;;;;26.61;38.49;100528.84;5075787;28;1000;-42
2023/05/27 00:50:14;;;;;;;;;;;;;;;26.55;38.44;100526.91;5064552;28;1054;-38
2023/05/27 00:52:40;;;;;;;;;;;;;;;26.50;38.62;100529.31;5072283;28;1068;-38
2023/05/27 00:55:06;;;;;;;;;;;;;;;26.40;38.58;100527.72;5071467;28;1980;-40
2023/05/27 00:57:33;;;;;;;;;;;;;;;26.47;38.65;100516.19;5079773;28;1043;-40
2023/05/27 00:59:58;;;;;;;;;;;;;;;26.44;38.46;100527.38;5074512;28;1164;-40
2023/05/27 01:02:24;;;;;;;;;;;;;;;26.37;38.64;100520.00;5079779;28;1011;-40
2023/05/27 01:04:49;;;;;;;;;;;;;;;26.36;38.80;100512.94;5062239;28;1297;-41
2023/05/27 01:07:24;;;;;;;;;;;;;;;26.41;38.60;100512.38;5040653;28;1092;-39
2023/05/27 01:09:52;;;;;;;;;;;;;;;26.58;38.38;100513.03;5054237;28;1036;-38
2023/05/27 01:12:36;;;;;;;;;;;;;;;26.45;38.69;100502.91;5050345;28;1043;-41
2023/05/27 01:15:03;;;;;;;;;;;;;;;26.59;38.35;100512.00;5077667;28;1984;-39
2023/05/27 01:17:28;;;;;;;;;;;;;;;26.64;38.30;100509.59;5059778;28;1107;-40
2023/05/27 01:19:54;;;;;;;;;;;;;;;26.57;38.33;100510.53;5072966;28;1111;-40
2023/05/27 01:22:22;;;;;;;;;;;;;;;26.49;38.34;100504.19;5051264;28;1061;-42
2023/05/27 01:24:49;;;;;;;;;;;;;;;26.34;38.44;100506.88;5060887;28;1133;-39
2023/05/27 01:27:15;;;;;;;;;;;;;;;26.36;38.36;100504.03;5079426;28;1142;-41
2023/05/27 01:29:42;;;;;;;;;;;;;;;26.39;38.04;100509.03;5058668;28;1156;-40
2023/05/27 01:32:35;;;;;;;;;;;;;;;26.36;38.52;100507.53;5051129;28;1342;-39
2023/05/27 01:35:04;;;;;;;;;;;;;;;26.46;38.18;100498.34;5068494;28;1906;-39
2023/05/27 01:37:31;;;;;;;;;;;;;;;26.51;38.33;100501.31;5054840;28;933;-40
2023/05/27 01:39:56;;;;;;;;;;;;;;;26.40;38.60;100500.75;5041249;28;1246;-41
2023/05/27 01:42:22;;;;;;;;;;;;;;;26.35;38.49;100497.78;5072592;28;1135;-39
2023/05/27 01:44:47;;;;;;;;;;;;;;;26.51;38.09;100506.69;5058829;28;1114;-42
2023/05/27 01:47:13;;;;;;;;;;;;;;;26.51;37.96;100506.69;5040478;28;1153;-41
2023/05/27 01:49:38;;;;;;;;;;;;;;;26.57;37.83;100499.75;5077873;28;822;-41
2023/05/27 01:52:04;;;;;;;;;;;;;;;26.54;38.04;100511.75;5043038;28;1347;-42
2023/05/27 01:54:30;;;;;;;;;;;;;;;26.35;38.01;100499.63;5059522;28;1910;-40
2023/05/27 01:56:56;;;;;;;;;;;;;;;26.40;38.58;100505.31;5045990;28;1390;-42
2023/05/27 01:59:22;;;;;;;;;;;;;;;26.49;38.09;100500.69;5047644;28;1167;-42
2023/05/27 02:01:47;;;;;;;;;;;;;;;26.33;38.15;100497.13;5058644;28;1130;-43
2023/05/27 02:04:13;;;;;;;;;;;;;;;26.32;38.82;100497.28;5070913;28;1027;-39
2023/05/27 02:06:38;;;;;;;;;;;;;;;26.29;38.61;100491.22;5071314;28;1072;-39
2023/05/27 02:09:04;;;;;;;;;;;;;;;26.33;38.58;100489.03;5064172;28;1122;-41
2023/05/27 02:11:30;;;;;;;;;;;;;;;26.31;38.50;100491.03;5059394;28;1316;-43
2023/05/27 02:13:59;;;;;;;;;;;;;;;26.28;38.58;100488.72;5070799;28;1918;-44
2023/05/27 02:16:25;;;;;;;;;;;;;;;26.30;38.42;100489.38;5053012;28;1150;-41
2023/05/27 02:18:51;;;;;;;;;;;;;;;26.29;38.64;100480.44;5039575;28;1901;-45
2023/05/27 02:21:16;;;;;;;;;;;;;;;26.32;38.30;100484.63;5039666;28;1147;-41
2023/05/27 02:23:43;;;;;;;;;;;;;;;26.29;38.49;100479.63;5058661;28;1042;-40
2023/05/27 02:26:09;;;;;;;;;;;;;;;26.37;37.96;100482.25;5058661;28;940;-41
2023/05/27 02:28:34;;;;;;;;;;;;;;;26.32;38.52;100483.78;5057502;28;972;-40
2023/05/27 02:31:00;;;;;;;;;;;;;;;26.33;38.05;100482.78;5052595;28;1209;-45
2023/05/27 02:33:25;;;;;;;;;;;;;;;26.25;38.66;100486.38;5058972;28;1970;-42
2023/05/27 02:35:51;;;;;;;;;;;;;;;26.38;38.32;100488.47;5076999;28;1071;-41
2023/05/27 02:38:16;;;;;;;;;;;;;;;26.39;38.30;100493.69;5056765;28;910;-43
2023/05/27 02:40:41;;;;;;;;;;;;;;;26.36;38.52;100485.97;5052716;28;1202;-40
2023/05/27 02:43:08;;;;;;;;;;;;;;;26.37;38.32;100497.59;5070714;28;1180;-43
2023/05/27 02:45:33;;;;;;;;;;;;;;;26.25;38.91;100489.94;4994531;28;1286515;-39
2023/05/27 02:48:01;;;;;;;;;;;;;;;26.27;38.54;100497.81;5071379;28;1171;-39
2023/05/27 02:50:27;;;;;;;;;;;;;;;26.29;38.48;100485.00;5059247;28;1178;-41
2023/05/27 02:52:53;;;;;;;;;;;;;;;26.36;38.60;100482.44;5059402;28;1142;-39
2023/05/27 02:55:18;;;;;;;;;;;;;;;26.37;38.82;100486.81;5046213;28;1987;-41
2023/05/27 02:57:44;;;;;;;;;;;;;;;26.53;38.55;100494.72;5077636;28;1300;-38
2023/05/27 03:00:11;;;;;;;;;;;;;;;26.40;38.49;100499.91;5046460;28;1162;-38
2023/05/27 03:02:36;;;;;;;;;;;;;;;26.46;37.95;100503.75;5046107;28;1110;-39
2023/05/27 03:05:02;;;;;;;;;;;;;;;26.43;38.40;100499.53;5077384;28;1209;-43
2023/05/27 03:07:29;;;;;;;;;;;;;;;26.33;38.38;100499.81;5057320;28;1048;-39
2023/05/27 03:09:55;;;;;;;;;;;;;;;26.52;38.41;100503.00;5052974;28;1293;-39
2023/05/27 03:12:21;;;;;;;;;;;;;;;26.40;38.25;100506.16;5064489;28;1103;-40
2023/05/27 03:14:47;;;;;;;;;;;;;;;26.49;38.07;100511.47;5057842;28;1910;-37
2023/05/27 03:17:13;;;;;;;;;;;;;;;26.44;38.51;100501.25;5058730;28;1145;-43
2023/05/27 03:19:39;;;;;;;;;;;;;;;26.34;38.44;100506.88;5045771;28;1159;-43
2023/05/27 03:22:06;;;;;;;;;;;;;;;26.13;38.84;100511.09;5076982;28;1062;-40
2023/05/27 03:24:32;;;;;;;;;;;;;;;26.21;38.69;100512.06;5046838;28;1229;-41
2023/05/27 03:26:57;;;;;;;;;;;;;;;26.36;38.87;100517.50;5052530;28;1127;-43
2023/05/27 03:29:23;;;;;;;;;;;;;;;26.10;39.30;100516.00;5040286;28;1275;-40
2023/05/27 03:31:49;;;;;;;;;;;;;;;26.16;39.20;100513.41;5051817;28;1363;-39
2023/05/27 03:34:17;;;;;;;;;;;;;;;26.28;39.09;100529.16;5052270;28;1919;-38
2023/05/27 03:36:46;;;;;;;;;;;;;;;26.50;38.81;100523.91;5043832;28;1252;-38
2023/05/27 03:39:12;;;;;;;;;;;;;;;26.39;38.99;100517.94;5058694;28;1214;-39
2023/05/27 03:41:43;;;;;;;;;;;;;;;26.38;38.74;100512.75;5058753;28;1154;-39
2023/05/27 03:44:11;;;;;;;;;;;;;;;26.26;39.02;100513.16;5045144;28;1405;-39
2023/05/27 03:46:37;;;;;;;;;;;;;;;26.27;38.74;100514.84;5070036;28;1087;-40
2023/05/27 03:49:02;;;;;;;;;;;;;;;26.38;38.51;100518.97;5068937;28;1071;-38
2023/05/27 03:51:29;;;;;;;;;;;;;;;26.24;38.97;100525.16;5041861;28;1031;-40
2023/05/27 03:53:54;;;;;;;;;;;;;;;26.22;38.84;100530.75;5058569;28;1967;-40
2023/05/27 03:56:20;;;;;;;;;;;;;;;26.36;39.23;100529.09;5073385;28;1091;-39
2023/05/27 03:58:45;;;;;;;;;;;;;;;26.34;39.29;100524.94;5066465;28;1154;-35
2023/05/27 04:01:11;;;;;;;;;;;;;;;26.44;39.00;100530.91;5056222;28;1083;-39
2023/05/27 04:03:37;;;;;;;;;;;;;;;26.26;38.83;100539.28;5048902;28;1426;-40
2023/05/27 04:06:03;;;;;;;;;;;;;;;25.96;39.96;100529.25;5065046;28;1067;-40
2023/05/27 04:08:28;;;;;;;;;;;;;;;26.01;39.21;100532.25;5042675;28;1119;-39
2023/05/27 04:10:57;;;;;;;;;;;;;;;26.04;39.38;100531.06;5047048;28;1198;-42
2023/05/27 04:13:24;;;;;;;;;;;;;;;26.14;39.25;100537.00;5062604;28;1914;-39
2023/05/27 04:15:50;;;;;;;;;;;;;;;26.17;38.70;100533.94;5058019;28;1129;-38
2023/05/27 04:18:15;;;;;;;;;;;;;;;26.13;39.43;100523.72;5075770;28;1089;-44
2023/05/27 04:20:43;;;;;;;;;;;;;;;26.19;38.92;100531.09;5067375;28;1190;-38
2023/05/27 04:23:10;;;;;;;;;;;;;;;26.03;39.31;100530.22;5054507;28;1234;-38
2023/05/27 04:25:37;;;;;;;;;;;;;;;26.19;38.98;100530.25;5057036;28;1214;-37
2023/05/27 04:28:08;;;;;;;;;;;;;;;26.27;38.94;100516.69;5051485;28;1424;-41
2023/05/27 04:30:39;;;;;;;;;;;;;;;26.32;38.86;100517.00;5051322;28;1175;-38
2023/05/27 04:33:12;;;;;;;;;;;;;;;26.28;39.13;100521.06;5045866;28;1918;-38
2023/05/27 04:35:40;;;;;;;;;;;;;;;26.11;39.59;100523.09;5044829;28;1241;-39
2023/05/27 04:38:07;;;;;;;;;;;;;;;26.28;39.07;100513.81;5048294;28;2020;-38
2023/05/27 04:40:52;;;;;;;;;;;;;;;26.32;38.83;100522.38;5041136;28;1115;-37
2023/05/27 04:43:50;;;;;;;;;;;;;;;26.22;39.06;100519.09;5034755;28;1327;-39
2023/05/27 04:46:18;;;;;;;;;;;;;;;26.31;38.97;100531.47;5026359;28;1158;-37
2023/05/27 04:48:46;;;;;;;;;;;;;;;26.23;39.18;100531.56;5030640;28;1102;-37
2023/05/27 04:51:15;;;;;;;;;;;;;;;26.16;39.33;100536.84;5025234;28;1391;-42
2023/05/27 04:53:41;;;;;;;;;;;;;;;26.32;38.95;100535.03;5034306;28;1969;-41
2023/05/27 04:56:08;;;;;;;;;;;;;;;26.10;39.50;100527.63;5036083;28;1050;-40
2023/05/27 04:58:35;;;;;;;;;;;;;;;26.01;39.98;100540.34;5026705;28;1251;-36
2023/05/27 05:01:01;;;;;;;;;;;;;;;25.88;39.80;100538.25;5018380;28;1219;-42
2023/05/27 05:03:36;;;;;;;;;;;;;;;25.21;38.04;100539.63;5023874;28;1432;-37
2023/05/27 05:06:03;;;;;;;;;;;;;;;25.79;39.53;100552.81;5021041;28;1277;-33
2023/05/27 05:08:29;;;;;;;;;;;;;;;26.16;38.05;100558.41;5020961;28;1474;-36
2023/05/27 05:10:55;;;;;;;;;;;;;;;26.52;38.31;100554.25;5026361;28;1310;-44
2023/05/27 05:13:21;;;;;;;;;;;;;;;26.44;38.55;100560.56;5028866;28;1950;-44
2023/05/27 05:15:47;;;;;;;;;;;;;;;26.61;37.75;100557.72;5026255;28;1513;-42
2023/05/27 05:18:12;;;;;;;;;;;;;;;26.49;38.45;100555.44;5014604;28;1227;-41
2023/05/27 05:20:38;;;;;;;;;;;;;;;26.74;37.48;100551.69;5015777;28;1080;-44
2023/05/27 05:23:07;;;;;;;;;;;;;;;26.53;38.26;100558.63;5029286;28;1172;-45
2023/05/27 05:25:37;;;;;;;;;;;;;;;26.35;38.39;100564.34;5026039;28;1100;-42
2023/05/27 05:28:04;;;;;;;;;;;;;;;24.64;42.84;100561.13;5030146;28;1198;-43
2023/05/27 05:30:31;;;;;;;;;;;;;;;25.44;40.37;100564.75;5026672;28;1178;-43
2023/05/27 05:32:57;;;;;;;;;;;;;;;25.68;40.37;100559.44;5027153;28;1386;-43
2023/05/27 05:35:26;;;;;;;;;;;;;;;26.23;38.96;100567.44;5014645;28;1902;-43
2023/05/27 05:37:59;;;;;;;;;;;;;;;25.94;39.76;100569.03;5019524;28;1107;-44
2023/05/27 05:40:24;;;;;;;;;;;;;;;26.26;39.09;100572.47;5039456;28;1276;-43
2023/05/27 05:43:08;;;;;;;;;;;;;;;26.31;39.38;100580.03;5018210;28;1159;-43
2023/05/27 05:45:33;;;;;;;;;;;;;;;26.50;38.96;100573.31;5014585;28;1285;-43
2023/05/27 05:48:00;;;;;;;;;;;;;;;26.35;38.70;100575.97;5018146;28;1302;-43
2023/05/27 05:50:29;;;;;;;;;;;;;;;26.43;39.03;100579.59;5023754;28;1189;-43
2023/05/27 05:52:56;;;;;;;;;;;;;;;26.22;39.15;100581.13;5037513;28;1154;-43
2023/05/27 05:55:21;;;;;;;;;;;;;;;26.33;39.18;100575.31;5025436;28;1923;-43
2023/05/27 05:57:47;;;;;;;;;;;;;;;26.26;39.09;100569.78;5037114;28;1064;-43
2023/05/27 06:00:13;;;;;;;;;;;;;;;26.23;39.44;100572.00;5037002;28;1265;-44
2023/05/27 06:02:44;;;;;;;;;;;;;;;26.39;39.02;100574.59;5030446;28;925;-44
2023/05/27 06:05:16;;;;;;;;;;;;;;;26.08;39.83;100574.63;5019192;28;1585;-43
2023/05/27 06:07:42;;;;;;;;;;;;;;;26.26;39.41;100577.88;5037321;28;1106;-43
2023/05/27 06:10:09;;;;;;;;;;;;;;;26.44;38.93;100579.47;5036389;28;1058;-43
2023/05/27 06:12:41;;;;;;;;;;;;;;;26.22;39.39;100586.50;5027021;28;1310;-44
2023/05/27 06:15:07;;;;;;;;;;;;;;;26.33;39.61;100588.81;5025587;28;1972;-43
2023/05/27 06:17:38;;;;;;;;;;;;;;;26.43;39.06;100593.94;5017472;28;1159;-44
2023/05/27 06:20:04;;;;;;;;;;;;;;;26.05;40.07;100589.34;5017162;28;1124;-43
2023/05/27 06:22:31;;;;;;;;;;;;;;;26.33;39.53;100594.19;5017426;28;1183;-43
2023/05/27 06:25:14;;;;;;;;;;;;;;;26.25;39.84;100595.06;5036816;28;1255;-43
2023/05/27 06:27:51;;;;;;;;;;;;;;;26.25;39.80;100580.75;5034891;28;1374;-42
2023/05/27 06:30:17;;;;;;;;;;;;;;;26.46;39.37;100588.19;5018684;28;1112;-42
2023/05/27 06:32:45;;;;;;;;;;;;;;;26.42;39.32;100589.59;5017173;28;1385;-43
2023/05/27 06:35:11;;;;;;;;;;;;;;;26.56;39.33;100584.41;5017194;28;1977;-43
2023/05/27 06:37:36;;;;;;;;;;;;;;;26.27;40.17;100594.91;5028854;28;1289;-43
2023/05/27 06:40:02;;;;;;;;;;;;;;;26.34;39.92;100585.06;5028007;28;1134;-43
2023/05/27 06:42:28;;;;;;;;;;;;;;;26.31;40.42;100593.50;5031675;28;1059;-42
2023/05/27 06:45:05;;;;;;;;;;;;;;;26.39;39.76;100581.84;5055974;28;1159;-41
2023/05/27 06:47:32;;;;;;;;;;;;;;;26.67;39.56;100578.56;5046669;28;1162;-44
2023/05/27 06:49:57;;;;;;;;;;;;;;;26.53;39.92;100585.59;5048688;28;1311;-44
2023/05/27 06:52:23;;;;;;;;;;;;;;;26.35;40.02;100585.94;5074139;28;1003;-40
2023/05/27 06:55:14;;;;;;;;;;;;;;;26.33;40.05;100577.16;5054980;28;1902;-43
2023/05/27 06:57:55;;;;;;;;;;;;;;;26.43;39.98;100590.41;5066355;28;1110;-42
2023/05/27 07:00:32;;;;;;;;;;;;;;;26.53;39.81;100582.88;5042471;28;1202;-43
2023/05/27 07:03:14;;;;;;;;;;;;;;;26.48;40.15;100590.69;5039614;28;1719;-43
2023/05/27 07:05:40;;;;;;;;;;;;;;;26.28;40.11;100583.94;5045533;28;1344;-43
2023/05/27 07:08:07;;;;;;;;;;;;;;;26.29;40.35;100591.00;5047427;28;1226;-43
2023/05/27 07:10:32;;;;;;;;;;;;;;;26.25;40.50;100586.16;5022995;28;1067;-41
2023/05/27 07:12:58;;;;;;;;;;;;;;;26.31;40.58;100581.91;5050601;28;1301;-43
2023/05/27 07:15:37;;;;;;;;;;;;;;;26.34;40.21;100590.47;5052496;28;1913;-43
2023/05/27 07:18:03;;;;;;;;;;;;;;;26.38;40.21;100588.25;5039542;28;1325;-41
2023/05/27 07:20:29;;;;;;;;;;;;;;;26.70;39.73;100580.03;5045905;28;1254;-42
2023/05/27 07:22:54;;;;;;;;;;;;;;;26.42;39.98;100584.19;5058878;28;1130;-43
2023/05/27 07:25:20;;;;;;;;;;;;;;;26.45;39.96;100583.81;5046144;28;1162;-41
2023/05/27 07:27:46;;;;;;;;;;;;;;;26.48;39.95;100594.25;5046053;28;1371;-43
2023/05/27 07:30:11;;;;;;;;;;;;;;;26.59;40.02;100587.53;5059304;28;1124;-44
2023/05/27 07:32:49;;;;;;;;;;;;;;;26.57;39.91;100589.63;5043719;28;1328;-43
2023/05/27 07:35:15;;;;;;;;;;;;;;;26.50;40.39;100581.41;5047098;28;1898;-43
2023/05/27 07:37:40;;;;;;;;;;;;;;;26.55;40.04;100588.09;5045805;28;1148;-43
2023/05/27 07:40:06;;;;;;;;;;;;;;;26.28;40.35;100580.38;5067723;28;862;-42
2023/05/27 07:42:36;;;;;;;;;;;;;;;26.55;39.99;100585.41;5051931;28;1233;-44
2023/05/27 07:45:02;;;;;;;;;;;;;;;26.57;40.50;100580.69;5048018;28;1359;-43
2023/05/27 07:47:28;;;;;;;;;;;;;;;26.20;40.68;100584.00;5055949;28;1135;-43
2023/05/27 07:49:53;;;;;;;;;;;;;;;26.35;40.61;100584.06;5056983;28;1091;-43
2023/05/27 07:52:39;;;;;;;;;;;;;;;26.36;40.14;100576.84;5060909;28;1016;-43
2023/05/27 07:55:17;;;;;;;;;;;;;;;25.45;40.24;100439.03;5045413;28;1909;-44
2023/05/27 07:57:43;;;;;;;;;;;;;;;26.29;40.34;100574.00;5044901;28;1270;-44
2023/05/27 08:00:09;;;;;;;;;;;;;;;26.21;40.85;100572.19;5045074;28;1281;-44
2023/05/27 08:02:53;;;;;;;;;;;;;;;26.26;40.70;100574.31;5052912;28;1055;-44
2023/05/27 08:05:23;;;;;;;;;;;;;;;26.40;41.00;100572.72;5052194;28;1317;-44
2023/05/27 08:08:25;;;;;;;;;;;;;;;26.39;40.74;100577.28;4988512;28;1178;-43
2023/05/27 08:11:09;;;;;;;;;;;;;;;26.46;40.61;100566.59;5045043;28;1036;-44
2023/05/27 08:14:03;;;;;;;;;;;;;;;26.36;40.75;100569.56;5014593;28;1971;-44
2023/05/27 08:16:47;;;;;;;;;;;;;;;26.50;40.70;100577.88;5056102;28;948;-44
2023/05/27 08:19:33;;;;;;;;;;;;;;;26.55;40.60;100580.84;5018260;28;1200;-44
2023/05/27 08:22:08;;;;;;;;;;;;;;;26.60;40.85;100583.84;5044550;28;2216;-43
2023/05/27 08:24:36;;;;;;;;;;;;;;;26.78;40.47;100586.19;5063535;28;1222;-43
2023/05/27 08:27:44;;;;;;;;;;;;;;;26.64;40.88;100573.53;5036107;28;1315;-44
2023/05/27 08:30:15;;;;;;;;;;;;;;;26.59;40.54;100578.63;5028734;28;1254;-44
2023/05/27 08:32:58;;;;;;;;;;;;;;;26.62;40.92;100575.56;5048976;28;1137;-44
2023/05/27 08:35:24;;;;;;;;;;;;;;;26.64;40.74;100562.75;5040205;28;1914;-43
2023/05/27 08:37:49;;;;;;;;;;;;;;;26.73;40.37;100560.78;5057789;28;1126;-44
2023/05/27 08:40:16;;;;;;;;;;;;;;;26.61;40.38;100552.31;5051894;28;1216;-43
2023/05/27 08:42:46;;;;;;;;;;;;;;;26.68;40.22;100550.53;5048413;28;1162;-44
2023/05/27 08:45:12;;;;;;;;;;;;;;;26.77;39.84;100549.44;5053959;28;1354;-43
2023/05/27 08:47:38;;;;;;;;;;;;;;;26.75;40.01;100540.69;5038410;28;1103;-43
2023/05/27 08:50:05;;;;;;;;;;;;;;;26.92;39.40;100539.66;5041742;28;1149;-43
2023/05/27 08:52:30;;;;;;;;;;;;;;;27.04;39.35;100540.06;5047149;28;1127;-43
2023/05/27 08:54:56;;;;;;;;;;;;;;;27.33;38.91;100531.06;5041789;28;1961;-44
2023/05/27 08:57:23;;;;;;;;;;;;;;;27.17;39.12;100528.59;5065654;28;1142;-44
2023/05/27 08:59:50;;;;;;;;;;;;;;;27.19;38.97;100527.38;5035010;28;1403;-43
2023/05/27 09:02:18;;;;;;;;;;;;;;;27.04;39.51;100526.56;5063521;28;1094;-44
2023/05/27 09:04:44;;;;;;;;;;;;;;;27.16;39.29;100535.03;5040841;28;1508;-44
2023/05/27 09:07:10;;;;;;;;;;;;;;;27.24;38.95;100524.94;5044711;28;1066;-44
2023/05/27 09:09:36;;;;;;;;;;;;;;;27.29;38.53;100523.53;5065146;28;1138;-43
2023/05/27 09:12:02;;;;;;;;;;;;;;;27.09;39.35;100521.44;5072937;28;1507;-42
2023/05/27 09:14:28;;;;;;;;;;;;;;;27.20;38.87;100520.94;5061031;28;1914;-44
2023/05/27 09:16:53;;;;;;;;;;;;;;;27.14;38.78;100511.72;5052766;28;1527;-43
2023/05/27 09:19:19;;;;;;;;;;;;;;;27.14;39.07;100514.44;5079280;28;1138;-44
2023/05/27 09:21:45;;;;;;;;;;;;;;;27.22;38.62;100505.41;5078973;28;1066;-43
2023/05/27 09:24:10;;;;;;;;;;;;;;;27.18;38.76;100482.50;5070844;28;1544;-44
2023/05/27 09:26:37;;;;;;;;;;;;;;;27.14;38.63;100510.91;5077975;28;1001;-44
2023/05/27 09:29:06;;;;;;;;;;;;;;;27.42;38.16;100502.09;5074646;28;898;-44
2023/05/27 09:31:32;;;;;;;;;;;;;;;27.52;37.85;100504.47;5061515;28;1238;-44
2023/05/27 09:33:58;;;;;;;;;;;;;;;27.30;38.23;100504.44;5055889;28;1906;-44
2023/05/27 09:36:24;;;;;;;;;;;;;;;27.16;38.36;100505.31;5052519;28;1202;-43
2023/05/27 09:38:49;;;;;;;;;;;;;;;26.92;38.97;100505.41;5072492;28;1055;-43
2023/05/27 09:41:15;;;;;;;;;;;;;;;26.87;39.21;100505.13;5052291;28;1358;-43
2023/05/27 09:43:40;;;;;;;;;;;;;;;27.09;37.96;100494.44;5059012;28;1079;-43
2023/05/27 09:46:10;;;;;;;;;;;;;;;27.06;38.49;100490.25;5071873;28;1071;-42
2023/05/27 09:48:36;;;;;;;;;;;;;;;27.10;37.58;100488.00;5071821;28;1028;-45
2023/05/27 09:51:02;;;;;;;;;;;;;;;27.01;37.55;100482.72;5059618;28;1102;-44
2023/05/27 09:53:28;;;;;;;;;;;;;;;26.96;38.01;100487.00;5053521;28;1900;-43
2023/05/27 09:55:54;;;;;;;;;;;;;;;27.05;37.71;100485.03;5065023;28;1230;-44
2023/05/27 09:58:20;;;;;;;;;;;;;;;26.96;37.51;100485.09;5066353;28;1071;-44
2023/05/27 10:00:45;;;;;;;;;;;;;;;26.93;38.36;100481.94;5058701;28;1011;-44
2023/05/27 10:03:11;;;;;;;;;;;;;;;26.96;38.04;100474.31;5055642;28;1148;-44
2023/05/27 10:05:37;;;;;;;;;;;;;;;26.85;38.07;100470.25;5058457;28;1033;-44
2023/05/27 10:08:03;;;;;;;;;;;;;;;26.95;37.99;100477.19;5071816;28;1239;-44
2023/05/27 10:10:28;;;;;;;;;;;;;;;26.79;38.34;100484.50;5069642;28;1293;-43
2023/05/27 10:12:54;;;;;;;;;;;;;;;26.94;37.76;100491.72;5065236;28;1233;-42
2023/05/27 10:15:24;;;;;;;;;;;;;;;26.95;37.69;100490.69;5067351;28;1909;-44
2023/05/27 10:17:52;;;;;;;;;;;;;;;26.97;37.86;100497.59;5071981;28;887;-45
2023/05/27 10:20:27;;;;;;;;;;;;;;;27.00;37.44;100499.91;5069370;28;1163;-44
2023/05/27 10:22:53;;;;;;;;;;;;;;;27.03;37.45;100498.72;5059516;28;1154;-43
2023/05/27 10:25:18;;;;;;;;;;;;;;;27.10;37.05;100498.81;5070997;28;1127;-45
2023/05/27 10:27:46;;;;;;;;;;;;;;;27.18;36.94;100492.44;5078012;28;1011;-44
2023/05/27 10:30:15;;;;;;;;;;;;;;;27.23;36.89;100490.03;5078132;28;1050;-44
2023/05/27 10:32:44;;;;;;;;;;;;;;;27.24;36.77;100494.41;5065483;28;1130;-44
2023/05/27 10:35:10;;;;;;;;;;;;;;;27.10;36.61;100483.44;5076543;28;1910;-43
2023/05/27 10:37:35;;;;;;;;;;;;;;;27.12;36.99;100480.56;5057890;28;1039;-43
2023/05/27 10:40:01;;;;;;;;;;;;;;;27.06;36.48;100495.63;5071165;28;1023;-42
2023/05/27 10:42:27;;;;;;;;;;;;;;;27.13;36.51;100512.78;5058537;28;1086;-44
2023/05/27 10:45:05;;;;;;;;;;;;;;;27.09;36.39;100522.25;5071229;28;1293;-43
2023/05/27 10:47:33;;;;;;;;;;;;;;;27.12;36.93;100521.06;5057710;28;1242;-43
2023/05/27 10:49:59;;;;;;;;;;;;;;;27.06;36.71;100521.81;5069750;28;1051;-44
2023/05/27 10:52:26;;;;;;;;;;;;;;;27.03;36.96;100533.81;5053999;28;1238;-44
2023/05/27 10:54:52;;;;;;;;;;;;;;;26.98;37.20;100530.81;5051808;28;1906;-44
2023/05/27 10:57:18;;;;;;;;;;;;;;;27.02;36.71;100533.00;5072458;28;1154;-44
2023/05/27 10:59:43;;;;;;;;;;;;;;;26.97;36.37;100510.25;5069301;28;1078;-44
2023/05/27 11:02:09;;;;;;;;;;;;;;;27.12;36.76;100516.50;5059060;28;1105;-44
2023/05/27 11:04:35;;;;;;;;;;;;;;;27.11;36.51;100504.00;5068718;28;1135;-45
2023/05/27 11:07:00;;;;;;;;;;;;;;;27.13;36.78;100511.91;5077477;28;1085;-44
2023/05/27 11:09:26;;;;;;;;;;;;;;;27.09;36.23;100502.53;5059998;28;1142;-43
2023/05/27 11:11:52;;;;;;;;;;;;;;;27.10;36.23;100504.19;5058890;28;1176;-42
2023/05/27 11:14:20;;;;;;;;;;;;;;;27.09;36.29;100492.56;5057557;28;1983;-43
2023/05/27 11:16:47;;;;;;;;;;;;;;;27.18;36.05;100485.19;5062417;28;1177;-44
2023/05/27 11:19:13;;;;;;;;;;;;;;;27.17;36.46;100488.94;5064782;28;1166;-44
2023/05/27 11:21:43;;;;;;;;;;;;;;;27.03;36.34;100479.81;5075851;28;1086;-44
2023/05/27 11:24:14;;;;;;;;;;;;;;;27.12;36.17;100477.84;5064513;28;1143;-45
2023/05/27 11:26:41;;;;;;;;;;;;;;;27.01;36.65;100466.53;5063892;28;1016;-44
2023/05/27 11:29:07;;;;;;;;;;;;;;;27.12;36.34;100469.75;5075755;28;1284;-44
2023/05/27 11:31:33;;;;;;;;;;;;;;;27.00;36.59;100472.06;5076669;28;1177;-44
2023/05/27 11:33:58;;;;;;;;;;;;;;;26.99;36.77;100473.94;5064014;28;1909;-45
2023/05/27 11:36:27;;;;;;;;;;;;;;;26.99;36.79;100482.03;5076370;28;1047;-44
2023/05/27 11:38:59;;;;;;;;;;;;;;;27.09;36.45;100475.53;5071752;28;1118;-44
2023/05/27 11:41:26;;;;;;;;;;;;;;;27.12;36.16;100475.16;5069071;28;1130;-43
2023/05/27 11:43:59;;;;;;;;;;;;;;;27.09;36.30;100472.84;5057511;28;1050;-44
2023/05/27 11:46:43;;;;;;;;;;;;;;;27.06;36.31;100462.44;5069811;28;1036;-44
2023/05/27 11:49:10;;;;;;;;;;;;;;;26.96;38.01;100458.13;5065812;28;1255;-40
2023/05/27 11:51:42;;;;;;;;;;;;;;;26.37;41.90;100463.38;5074352;28;1035;-39
2023/05/27 11:54:27;;;;;;;;;;;;;;;26.29;41.68;100461.56;5066749;28;1913;-36
2023/05/27 11:56:53;;;;;;;;;;;;;;;26.10;42.68;100462.94;5063372;28;1185;-39
2023/05/27 11:59:18;;;;;;;;;;;;;;;26.17;42.05;100465.75;5076260;28;1118;-35
2023/05/27 12:01:44;;;;;;;;;;;;;;;26.22;42.20;100468.72;5062354;28;1176;-37
2023/05/27 12:04:09;;;;;;;;;;;;;;;26.29;42.37;100466.94;5063882;28;1046;-37
2023/05/27 12:06:35;;;;;;;;;;;;;;;26.16;43.29;100464.03;5063351;28;1123;-38
2023/05/27 12:09:01;;;;;;;;;;;;;;;26.27;42.49;100476.25;5063521;28;1034;-39
2023/05/27 12:11:27;;;;;;;;;;;;;;;26.34;42.46;100477.22;5056197;28;1147;-35
2023/05/27 12:13:53;;;;;;;;;;;;;;;26.36;42.56;100475.16;5069234;28;1983;-37
2023/05/27 12:16:18;;;;;;;;;;;;;;;26.20;42.29;100475.31;5071769;28;1145;-34
2023/05/27 12:18:45;;;;;;;;;;;;;;;26.37;42.02;100482.25;5066861;28;890;-37
2023/05/27 12:21:10;;;;;;;;;;;;;;;26.79;39.82;100481.78;5062965;28;1114;-45
2023/05/27 12:23:36;;;;;;;;;;;;;;;26.64;40.98;100487.19;5069174;28;1166;-44
2023/05/27 12:26:02;;;;;;;;;;;;;;;26.34;42.10;100492.56;5056480;28;1031;-42
2023/05/27 12:28:27;;;;;;;;;;;;;;;26.41;42.52;100496.19;5050368;28;2047;-43
2023/05/27 12:30:52;;;;;;;;;;;;;;;26.41;42.73;100507.81;5068677;28;984;-44
2023/05/27 12:33:18;;;;;;;;;;;;;;;26.33;42.72;100515.16;5069377;28;1241;-44
2023/05/27 12:35:43;;;;;;;;;;;;;;;26.28;43.58;100508.44;5069787;28;1902;-43
2023/05/27 12:38:09;;;;;;;;;;;;;;;26.14;44.45;100517.34;5072874;28;1249;-42
2023/05/27 12:40:35;;;;;;;;;;;;;;;26.16;44.16;100513.41;5073799;28;1146;-43
2023/05/27 12:43:03;;;;;;;;;;;;;;;26.04;44.79;100513.00;5057736;28;895;-43
2023/05/27 12:45:29;;;;;;;;;;;;;;;26.35;42.47;100502.31;5075318;28;1032;-44
2023/05/27 12:47:55;;;;;;;;;;;;;;;26.39;42.83;100501.75;5078828;28;1067;-43
2023/05/27 12:50:21;;;;;;;;;;;;;;;26.37;43.11;100503.00;5080321;28;1089;-41
2023/05/27 12:52:47;;;;;;;;;;;;;;;26.58;42.02;100512.19;5063981;28;1277;-44